createdAt,value
2018-11-04T00:00:43.509Z,8.90
2018-11-04T00:03:11.685Z,9.23
2018-11-04T00:05:39.870Z,9.53
2018-11-04T00:08:08.646Z,10.43
2018-11-04T00:10:37.042Z,9.43
2018-11-04T00:13:06.526Z,9.80
2018-11-04T00:15:34.637Z,9.13
2018-11-04T00:18:02.790Z,10.07
2018-11-04T00:20:31.076Z,9.47
2018-11-04T00:22:59.319Z,9.47
2018-11-04T00:25:27.578Z,9.80
2018-11-04T00:27:56.498Z,10.17
2018-11-04T00:30:24.735Z,9.17
2018-11-04T00:32:53.177Z,9.17
2018-11-04T00:35:21.337Z,8.60
2018-11-04T00:37:49.723Z,9.77
2018-11-04T00:40:18.093Z,9.00
2018-11-04T00:42:46.261Z,8.73
2018-11-04T00:45:14.515Z,8.03
2018-11-04T00:47:42.610Z,9.03
2018-11-04T00:50:13.313Z,9.30
2018-11-04T00:52:42.876Z,8.47
2018-11-04T00:55:12.360Z,8.17
2018-11-04T00:57:44.110Z,8.70
2018-11-04T01:00:20.182Z,8.53
2018-11-04T01:02:50.597Z,7.97
2018-11-04T01:05:20.311Z,8.00
2018-11-04T01:07:48.541Z,7.87
2018-11-04T01:10:16.810Z,8.00
2018-11-04T01:12:45.424Z,8.53
2018-11-04T01:15:14.340Z,8.40
2018-11-04T01:17:42.986Z,7.50
2018-11-04T01:20:13.137Z,8.37
2018-11-04T01:22:41.317Z,8.37
2018-11-04T01:25:09.731Z,7.43
2018-11-04T01:27:37.889Z,7.57
2018-11-04T01:30:08.002Z,7.83
2018-11-04T01:32:36.149Z,7.23
2018-11-04T01:35:04.506Z,7.97
2018-11-04T01:37:32.702Z,7.97
2018-11-04T01:40:01.598Z,7.70
2018-11-04T01:42:29.766Z,7.83
2018-11-04T01:44:58.002Z,8.43
2018-11-04T01:47:26.221Z,6.90
2018-11-04T01:49:54.493Z,7.70
2018-11-04T01:52:22.670Z,7.70
2018-11-04T01:54:50.950Z,7.50
2018-11-04T01:57:19.631Z,7.40
2018-11-04T01:59:47.786Z,8.03
2018-11-04T02:02:16.012Z,7.60
2018-11-04T02:04:44.129Z,6.60
2018-11-04T02:07:12.421Z,7.53
2018-11-04T02:09:40.670Z,8.30
2018-11-04T02:12:08.850Z,7.20
2018-11-04T02:14:37.017Z,6.90
2018-11-04T02:17:05.176Z,7.47
2018-11-04T02:19:33.297Z,7.53
2018-11-04T02:22:01.540Z,6.77
2018-11-04T02:24:29.686Z,7.10
2018-11-04T02:26:57.825Z,6.73
2018-11-04T02:29:25.994Z,7.00
2018-11-04T02:31:54.146Z,6.50
2018-11-04T02:34:22.308Z,7.23
2018-11-04T02:36:50.495Z,6.60
2018-11-04T02:39:18.639Z,7.60
2018-11-04T02:41:46.813Z,7.10
2018-11-04T02:44:15.957Z,7.40
2018-11-04T02:46:44.148Z,7.00
2018-11-04T02:49:12.693Z,7.10
2018-11-04T02:51:40.858Z,7.17
2018-11-04T02:54:09.017Z,6.67
2018-11-04T02:56:37.181Z,6.70
2018-11-04T02:59:05.864Z,6.90
2018-11-04T03:01:34.038Z,7.27
2018-11-04T03:04:02.262Z,6.37
2018-11-04T03:06:30.370Z,6.33
2018-11-04T03:09:00.396Z,7.23
2018-11-04T03:11:28.740Z,7.07
2018-11-04T03:13:57.163Z,7.10
2018-11-04T03:16:25.391Z,6.70
2018-11-04T03:18:53.554Z,7.10
2018-11-04T03:21:21.737Z,7.33
2018-11-04T03:23:49.928Z,6.40
2018-11-04T03:26:18.282Z,7.43
2018-11-04T03:28:46.435Z,7.10
2018-11-04T03:31:14.681Z,6.80
2018-11-04T03:33:43.265Z,6.70
2018-11-04T03:36:11.445Z,7.20
2018-11-04T03:38:39.585Z,6.97
2018-11-04T03:41:07.784Z,7.20
2018-11-04T03:43:37.269Z,7.50
2018-11-04T03:46:05.742Z,7.70
2018-11-04T03:48:33.959Z,7.53
2018-11-04T03:51:02.094Z,7.20
2018-11-04T03:53:30.287Z,7.17
2018-11-04T03:55:58.432Z,7.30
2018-11-04T03:58:26.694Z,6.97
2018-11-04T04:00:54.874Z,7.30
2018-11-04T04:03:23.241Z,7.37
2018-11-04T04:05:51.425Z,7.37
2018-11-04T04:08:20.274Z,7.50
2018-11-04T04:10:48.840Z,7.83
2018-11-04T04:13:17.421Z,7.90
2018-11-04T04:15:45.562Z,7.60
2018-11-04T04:18:13.720Z,7.73
2018-11-04T04:20:41.922Z,8.00
2018-11-04T04:23:10.807Z,7.27
2018-11-04T04:25:38.955Z,7.73
2018-11-04T04:28:07.131Z,7.93
2018-11-04T04:30:35.322Z,8.43
2018-11-04T04:33:03.480Z,8.20
2018-11-04T04:35:31.757Z,7.90
2018-11-04T04:38:00.376Z,8.30
2018-11-04T04:40:28.618Z,8.20
2018-11-04T04:42:56.909Z,8.50
2018-11-04T04:45:25.081Z,7.90
2018-11-04T04:47:53.235Z,7.77
2018-11-04T04:50:21.461Z,8.17
2018-11-04T04:52:49.613Z,8.87
2018-11-04T04:55:17.861Z,8.87
2018-11-04T04:57:46.065Z,8.30
2018-11-04T05:00:14.317Z,7.80
2018-11-04T05:02:43.283Z,7.53
2018-11-04T05:05:11.546Z,7.83
2018-11-04T05:07:39.699Z,8.23
2018-11-04T05:10:07.870Z,8.63
2018-11-04T05:12:36.725Z,7.80
2018-11-04T05:15:05.962Z,8.53
2018-11-04T05:17:34.130Z,8.13
2018-11-04T05:20:02.413Z,8.93
2018-11-04T05:22:30.712Z,8.13
2018-11-04T05:24:59.205Z,8.10
2018-11-04T05:27:27.380Z,8.27
2018-11-04T05:29:57.393Z,8.57
2018-11-04T05:32:25.687Z,8.70
2018-11-04T05:34:54.029Z,9.03
2018-11-04T05:37:22.189Z,9.07
2018-11-04T05:39:50.568Z,9.03
2018-11-04T05:42:20.949Z,8.80
2018-11-04T05:44:49.085Z,8.73
2018-11-04T05:47:17.267Z,8.50
2018-11-04T05:49:45.429Z,9.37
2018-11-04T05:52:13.815Z,9.20
2018-11-04T05:54:41.996Z,8.90
2018-11-04T05:57:10.282Z,8.90
2018-11-04T05:59:38.544Z,9.33
2018-11-04T06:02:07.610Z,9.43
2018-11-04T06:04:35.756Z,8.73
2018-11-04T06:07:03.930Z,9.43
2018-11-04T06:09:32.081Z,9.43
2018-11-04T06:12:00.238Z,10.57
2018-11-04T06:14:28.605Z,9.57
2018-11-04T06:16:56.882Z,8.37
2018-11-04T06:19:25.191Z,9.70
2018-11-04T06:21:53.324Z,9.13
2018-11-04T06:24:22.274Z,9.20
2018-11-04T06:26:51.109Z,9.10
2018-11-04T06:29:19.674Z,9.00
2018-11-04T06:31:48.125Z,9.67
2018-11-04T06:34:16.496Z,9.27
2018-11-04T06:36:44.678Z,9.10
2018-11-04T06:39:12.978Z,9.90
2018-11-04T06:41:41.155Z,9.43
2018-11-04T06:44:09.452Z,8.73
2018-11-04T06:46:37.747Z,9.40
2018-11-04T06:49:05.930Z,9.23
2018-11-04T06:51:35.149Z,9.40
2018-11-04T06:54:03.350Z,9.90
2018-11-04T06:56:31.527Z,9.90
2018-11-04T06:59:00.138Z,10.87
2018-11-04T07:01:28.527Z,10.63
2018-11-04T07:04:08.070Z,9.67
2018-11-04T07:06:36.245Z,10.10
2018-11-04T07:09:06.546Z,11.03
2018-11-04T07:11:34.946Z,9.93
2018-11-04T07:14:03.405Z,10.43
2018-11-04T07:16:32.012Z,10.60
2018-11-04T07:19:00.235Z,10.20
2018-11-04T07:21:28.364Z,9.50
2018-11-04T07:23:56.708Z,11.30
2018-11-04T07:26:24.853Z,10.90
2018-11-04T07:28:53.219Z,11.27
2018-11-04T07:31:21.403Z,11.13
2018-11-04T07:33:50.117Z,11.00
2018-11-04T07:36:18.337Z,10.67
2018-11-04T07:38:46.473Z,10.87
2018-11-04T07:41:14.921Z,11.30
2018-11-04T07:43:43.041Z,10.90
2018-11-04T07:46:11.381Z,11.30
2018-11-04T07:48:39.682Z,11.40
2018-11-04T07:51:07.958Z,11.00
2018-11-04T07:53:36.422Z,11.30
2018-11-04T07:56:04.695Z,12.67
2018-11-04T07:58:33.021Z,13.83
2018-11-04T08:01:01.558Z,12.67
2018-11-04T08:03:30.169Z,12.23
2018-11-04T08:05:58.396Z,13.27
2018-11-04T08:08:26.593Z,13.60
2018-11-04T08:10:55.486Z,12.93
2018-11-04T08:13:23.729Z,14.60
2018-11-04T08:15:51.886Z,13.63
2018-11-04T08:18:20.109Z,14.67
2018-11-04T08:20:49.008Z,14.73
2018-11-04T08:23:17.191Z,16.10
2018-11-04T08:25:45.464Z,15.90
2018-11-04T08:28:13.672Z,15.00
2018-11-04T08:30:42.803Z,16.00
2018-11-04T08:33:11.041Z,15.67
2018-11-04T08:35:39.197Z,17.27
2018-11-04T08:38:07.870Z,17.13
2018-11-04T08:40:37.399Z,18.97
2018-11-04T08:43:05.604Z,17.13
2018-11-04T08:45:34.810Z,19.47
2018-11-04T08:48:03.160Z,21.27
2018-11-04T08:50:31.397Z,21.30
2018-11-04T08:52:59.598Z,22.53
2018-11-04T08:55:28.802Z,21.80
2018-11-04T08:57:57.089Z,21.70
2018-11-04T09:00:25.326Z,23.97
2018-11-04T09:02:53.647Z,22.70
2018-11-04T09:05:21.914Z,22.90
2018-11-04T09:07:51.768Z,24.10
2018-11-04T09:10:19.970Z,24.30
2018-11-04T09:12:48.788Z,26.67
2018-11-04T09:15:18.093Z,25.07
2018-11-04T09:17:46.577Z,26.10
2018-11-04T09:20:15.892Z,26.73
2018-11-04T09:22:44.889Z,25.87
2018-11-04T09:25:14.478Z,26.97
2018-11-04T09:27:42.805Z,29.00
2018-11-04T09:30:13.228Z,30.30
2018-11-04T09:32:41.466Z,29.80
2018-11-04T09:35:10.544Z,32.53
2018-11-04T09:37:39.761Z,30.33
2018-11-04T09:40:09.626Z,29.80
2018-11-04T09:42:37.779Z,30.50
2018-11-04T09:45:06.600Z,30.07
2018-11-04T09:47:35.002Z,30.13
2018-11-04T09:50:03.415Z,31.17
2018-11-04T09:52:31.531Z,29.37
2018-11-04T09:54:59.749Z,30.33
2018-11-04T09:57:27.965Z,29.77
2018-11-04T09:59:56.165Z,29.50
2018-11-04T10:02:24.400Z,29.97
2018-11-04T10:04:52.593Z,29.40
2018-11-04T10:07:20.949Z,29.53
2018-11-04T10:09:49.391Z,28.17
2018-11-04T10:12:17.710Z,28.30
2018-11-04T10:14:49.021Z,27.93
2018-11-04T10:17:17.181Z,27.50
2018-11-04T10:19:45.644Z,27.80
2018-11-04T10:22:13.656Z,28.07
2018-11-04T10:24:41.810Z,27.43
2018-11-04T10:27:10.087Z,27.10
2018-11-04T10:29:38.473Z,26.40
2018-11-04T10:32:07.761Z,29.37
2018-11-04T10:34:36.638Z,28.10
2018-11-04T10:37:06.448Z,29.13
2018-11-04T10:39:34.813Z,28.20
2018-11-04T10:42:03.720Z,27.40
2018-11-04T10:44:31.984Z,27.43
2018-11-04T10:47:02.238Z,28.87
2018-11-04T10:49:30.551Z,27.93
2018-11-04T10:51:58.680Z,28.23
2018-11-04T10:54:26.820Z,28.10
2018-11-04T10:56:55.417Z,29.60
2018-11-04T10:59:23.829Z,27.37
2018-11-04T11:01:53.186Z,29.73
2018-11-04T11:04:21.405Z,29.63
2018-11-04T11:06:49.662Z,28.80
2018-11-04T11:09:18.182Z,28.90
2018-11-04T11:11:47.386Z,29.87
2018-11-04T11:14:15.737Z,29.30
2018-11-04T11:16:45.003Z,28.97
2018-11-04T11:19:13.280Z,28.20
2018-11-04T11:21:41.553Z,29.47
2018-11-04T11:24:09.945Z,29.70
2018-11-04T11:26:38.231Z,29.00
2018-11-04T11:29:06.823Z,28.77
2018-11-04T11:31:35.827Z,28.80
2018-11-04T11:34:04.300Z,28.67
2018-11-04T11:36:33.581Z,28.17
2018-11-04T11:39:06.471Z,27.67
2018-11-04T11:41:34.762Z,27.97
2018-11-04T11:44:02.938Z,32.73
2018-11-04T11:46:32.201Z,26.63
2018-11-04T11:49:00.726Z,27.97
2018-11-04T11:51:29.803Z,28.17
2018-11-04T11:53:59.294Z,27.50
2018-11-04T11:56:28.422Z,29.43
2018-11-04T11:58:58.192Z,28.83
2018-11-04T12:01:26.614Z,27.50
2018-11-04T12:03:55.166Z,27.23
2018-11-04T12:06:23.510Z,26.53
2018-11-04T12:08:51.943Z,27.70
2018-11-04T12:11:20.695Z,28.73
2018-11-04T12:13:50.795Z,28.17
2018-11-04T12:16:20.110Z,27.90
2018-11-04T12:18:49.112Z,27.27
2018-11-04T12:21:18.678Z,26.50
2018-11-04T12:23:47.162Z,26.97
2018-11-04T12:26:15.459Z,27.40
2018-11-04T12:28:43.665Z,27.10
2018-11-04T12:31:13.675Z,25.53
2018-11-04T12:33:42.587Z,27.33
2018-11-04T12:36:11.466Z,27.57
2018-11-04T12:38:39.709Z,26.87
2018-11-04T12:41:08.011Z,27.40
2018-11-04T12:43:36.284Z,27.47
2018-11-04T12:46:04.726Z,28.33
2018-11-04T12:48:33.127Z,27.53
2018-11-04T12:51:01.350Z,27.63
2018-11-04T12:53:30.052Z,28.17
2018-11-04T12:55:59.352Z,28.77
2018-11-04T12:58:27.749Z,28.90
2018-11-04T13:00:56.228Z,28.53
2018-11-04T13:03:26.686Z,29.60
2018-11-04T13:05:55.233Z,31.67
2018-11-04T13:08:23.606Z,29.13
2018-11-04T13:10:52.613Z,28.70
2018-11-04T13:13:21.334Z,27.60
2018-11-04T13:15:49.826Z,28.77
2018-11-04T13:18:17.994Z,28.07
2018-11-04T13:20:46.231Z,28.27
2018-11-04T13:23:14.561Z,27.97
2018-11-04T13:25:43.232Z,28.80
2018-11-04T13:28:11.577Z,28.20
2018-11-04T13:30:39.717Z,28.00
2018-11-04T13:33:08.041Z,28.70
2018-11-04T13:35:36.481Z,28.07
2018-11-04T13:38:04.857Z,29.93
2018-11-04T13:40:33.451Z,31.30
2018-11-04T13:43:01.581Z,31.33
2018-11-04T13:45:29.868Z,31.17
2018-11-04T13:47:58.228Z,29.70
2018-11-04T13:50:26.877Z,27.03
2018-11-04T13:52:57.007Z,28.63
2018-11-04T13:55:25.331Z,29.80
2018-11-04T13:57:56.902Z,29.27
2018-11-04T14:00:27.609Z,30.07
2018-11-04T14:02:56.484Z,29.00
2018-11-04T14:05:29.031Z,29.13
2018-11-04T14:07:58.210Z,29.07
2018-11-04T14:10:26.545Z,30.87
2018-11-04T14:12:55.259Z,34.17
2018-11-04T14:15:23.509Z,30.50
2018-11-04T14:17:52.093Z,30.17
2018-11-04T14:23:40.763Z,30.47
2018-11-04T14:26:10.117Z,30.33
2018-11-04T14:28:38.647Z,30.00
2018-11-04T14:31:08.406Z,30.43
2018-11-04T14:33:36.662Z,30.13
2018-11-04T14:36:06.464Z,29.87
2018-11-04T14:38:34.857Z,31.37
2018-11-04T14:41:05.567Z,31.10
2018-11-04T14:43:34.235Z,31.83
2018-11-04T14:46:10.607Z,32.27
2018-11-04T14:48:39.189Z,31.37
2018-11-04T14:51:28.977Z,31.70
2018-11-04T14:53:57.341Z,32.43
2018-11-04T14:56:27.171Z,31.80
2018-11-04T14:58:55.790Z,32.23
2018-11-04T15:01:26.264Z,33.60
2018-11-04T15:04:00.487Z,32.00
2018-11-04T15:06:30.041Z,31.73
2018-11-04T15:09:00.055Z,32.93
2018-11-04T15:11:35.077Z,36.77
2018-11-04T15:14:04.441Z,34.17
2018-11-04T15:16:33.409Z,33.63
2018-11-04T15:19:02.492Z,32.97
2018-11-04T15:21:31.334Z,31.67
2018-11-04T15:24:00.735Z,32.47
2018-11-04T15:26:29.352Z,30.47
2018-11-04T15:28:58.034Z,30.63
2018-11-04T15:31:26.521Z,29.57
2018-11-04T15:33:54.797Z,31.27
2018-11-04T15:36:30.178Z,29.53
2018-11-04T15:39:01.172Z,30.00
2018-11-04T15:41:31.197Z,30.27
2018-11-04T15:43:59.479Z,28.57
2018-11-04T15:46:27.808Z,28.47
2018-11-04T15:48:57.640Z,29.63
2018-11-04T15:51:28.490Z,28.77
2018-11-04T15:53:57.219Z,29.17
2018-11-04T15:56:26.067Z,29.60
2018-11-04T15:58:56.105Z,28.77
2018-11-04T16:01:26.342Z,27.53
2018-11-04T16:03:54.677Z,27.70
2018-11-04T16:06:24.547Z,28.20
2018-11-04T16:08:56.505Z,28.13
2018-11-04T16:11:38.154Z,28.20
2018-11-04T16:14:06.655Z,27.67
2018-11-04T16:16:35.434Z,27.07
2018-11-04T16:19:04.621Z,31.90
2018-11-04T16:21:35.697Z,29.73
2018-11-04T16:24:04.001Z,27.67
2018-11-04T16:26:33.376Z,27.80
2018-11-04T16:29:01.755Z,27.23
2018-11-04T16:31:29.930Z,28.63
2018-11-04T16:33:58.136Z,27.00
2018-11-04T16:36:26.444Z,26.20
2018-11-04T16:38:54.786Z,28.83
2018-11-04T16:41:23.217Z,28.67
2018-11-04T16:43:51.537Z,30.47
2018-11-04T16:46:19.710Z,29.03
2018-11-04T16:48:47.928Z,30.47
2018-11-04T16:51:17.118Z,30.63
2018-11-04T16:53:45.315Z,32.27
2018-11-04T16:56:13.725Z,32.43
2018-11-04T16:58:42.039Z,32.03
2018-11-04T17:01:10.464Z,33.37
2018-11-04T17:03:38.760Z,33.33
2018-11-04T17:06:07.021Z,33.43
2018-11-04T17:08:35.679Z,33.93
2018-11-04T17:11:04.144Z,33.83
2018-11-04T17:13:32.669Z,36.03
2018-11-04T17:16:00.994Z,34.83
2018-11-04T17:18:29.590Z,35.20
2018-11-04T17:20:57.970Z,35.63
2018-11-04T17:23:27.056Z,37.30
2018-11-04T17:25:55.365Z,36.33
2018-11-04T17:28:23.730Z,35.73
2018-11-04T17:30:52.318Z,35.27
2018-11-04T17:33:22.765Z,35.70
2018-11-04T17:35:52.184Z,36.47
2018-11-04T17:38:20.461Z,35.27
2018-11-04T17:40:49.029Z,35.37
2018-11-04T17:43:17.309Z,37.17
2018-11-04T17:45:45.600Z,36.17
2018-11-04T17:48:13.885Z,36.50
2018-11-04T17:50:42.854Z,35.47
2018-11-04T17:53:11.145Z,36.70
2018-11-04T17:55:39.671Z,37.37
2018-11-04T17:58:08.107Z,36.57
2018-11-04T18:00:36.691Z,36.17
2018-11-04T18:03:05.103Z,36.27
2018-11-04T18:05:33.330Z,37.67
2018-11-04T18:08:01.525Z,37.00
2018-11-04T18:10:29.782Z,37.27
2018-11-04T18:12:57.965Z,37.10
2018-11-04T18:15:27.358Z,36.33
2018-11-04T18:17:55.522Z,37.17
2018-11-04T18:20:23.738Z,36.47
2018-11-04T18:22:51.879Z,37.30
2018-11-04T18:25:20.065Z,35.00
2018-11-04T18:27:48.330Z,37.00
2018-11-04T18:30:17.084Z,36.83
2018-11-04T18:32:46.115Z,37.77
2018-11-04T18:35:14.569Z,36.47
2018-11-04T18:37:46.210Z,36.17
2018-11-04T18:40:16.236Z,37.43
2018-11-04T18:42:44.944Z,36.83
2018-11-04T18:45:16.972Z,35.37
2018-11-04T18:47:45.567Z,34.23
2018-11-04T18:50:14.714Z,37.63
2018-11-04T18:52:43.094Z,35.73
2018-11-04T18:55:12.077Z,42.13
2018-11-04T18:57:42.481Z,34.50
2018-11-04T19:00:12.979Z,35.23
2018-11-04T19:02:41.696Z,37.17
2018-11-04T19:05:10.507Z,34.73
2018-11-04T19:07:39.135Z,37.33
2018-11-04T19:10:12.329Z,38.43
2018-11-04T19:12:41.026Z,37.67
2018-11-04T19:15:15.262Z,36.23
2018-11-04T19:20:26.411Z,37.87
2018-11-04T19:23:00.272Z,36.13
2018-11-04T19:25:29.523Z,37.17
2018-11-04T19:27:58.062Z,37.57
2018-11-04T19:30:26.480Z,36.57
2018-11-04T19:32:58.436Z,37.53
2018-11-04T19:35:27.052Z,36.70
2018-11-04T19:37:58.534Z,37.70
2018-11-04T19:40:29.490Z,36.63
2018-11-04T19:42:59.048Z,39.43
2018-11-04T19:45:27.804Z,39.30
2018-11-04T19:48:04.789Z,40.63
2018-11-04T19:50:35.105Z,38.63
2018-11-04T19:53:03.452Z,40.57
2018-11-04T19:55:31.717Z,40.10
2018-11-04T19:58:00.042Z,39.37
2018-11-04T20:00:28.207Z,41.27
2018-11-04T20:02:56.475Z,39.07
2018-11-04T20:05:27.932Z,39.27
2018-11-04T20:07:56.086Z,41.43
2018-11-04T20:10:24.424Z,42.07
2018-11-04T20:12:58.151Z,40.63
2018-11-04T20:15:26.391Z,42.00
2018-11-04T20:17:54.783Z,42.07
2018-11-04T20:20:24.767Z,45.63
2018-11-04T20:22:53.039Z,42.37
2018-11-04T20:25:26.917Z,41.33
2018-11-04T20:28:02.047Z,40.43
2018-11-04T20:30:30.423Z,41.17
2018-11-04T20:33:02.626Z,42.67
2018-11-04T20:35:30.844Z,41.83
2018-11-04T20:37:59.086Z,41.23
2018-11-04T20:40:32.598Z,42.93
2018-11-04T20:43:00.802Z,42.50
2018-11-04T20:45:28.914Z,42.07
2018-11-04T20:48:02.462Z,41.13
2018-11-04T20:50:36.162Z,42.97
2018-11-04T20:53:04.628Z,44.10
2018-11-04T20:55:38.352Z,41.10
2018-11-04T20:58:07.174Z,42.53
2018-11-04T21:00:35.389Z,41.93
2018-11-04T21:03:03.798Z,43.10
2018-11-04T21:05:32.734Z,42.63
2018-11-04T21:08:01.217Z,42.30
2018-11-04T21:10:30.425Z,42.13
2018-11-04T21:12:58.869Z,43.77
2018-11-04T21:15:27.066Z,43.17
2018-11-04T21:17:55.271Z,43.57
2018-11-04T21:20:23.421Z,43.97
2018-11-04T21:22:51.614Z,42.93
2018-11-04T21:25:20.082Z,42.67
2018-11-04T21:27:48.298Z,43.97
2018-11-04T21:30:16.693Z,44.23
2018-11-04T21:32:45.616Z,43.87
2018-11-04T21:35:14.196Z,44.00
2018-11-04T21:37:42.650Z,44.67
2018-11-04T21:40:11.606Z,44.47
2018-11-04T21:42:40.716Z,45.20
2018-11-04T21:45:10.310Z,42.90
2018-11-04T21:47:38.574Z,44.87
2018-11-04T21:50:07.857Z,46.90
2018-11-04T21:52:36.121Z,45.17
2018-11-04T21:55:06.475Z,46.40
2018-11-04T21:57:40.109Z,45.77
2018-11-04T22:00:11.083Z,47.30
2018-11-04T22:02:39.671Z,47.87
2018-11-04T22:05:09.905Z,44.77
2018-11-04T22:07:38.398Z,47.47
2018-11-04T22:10:08.820Z,46.53
2018-11-04T22:12:36.974Z,46.67
2018-11-04T22:15:05.301Z,45.10
2018-11-04T22:17:33.446Z,48.23
2018-11-04T22:20:01.606Z,50.90
2018-11-04T22:22:29.785Z,47.53
2018-11-04T22:24:57.965Z,48.97
2018-11-04T22:27:26.094Z,48.47
2018-11-04T22:29:54.782Z,49.57
2018-11-04T22:32:23.022Z,48.03
2018-11-04T22:34:51.271Z,50.03
2018-11-04T22:37:19.370Z,48.40
2018-11-04T22:39:47.844Z,47.67
2018-11-04T22:42:16.101Z,47.73
2018-11-04T22:44:44.177Z,47.80
2018-11-04T22:47:12.307Z,46.53
2018-11-04T22:49:40.533Z,47.50
2018-11-04T22:52:08.707Z,46.83
2018-11-04T22:54:36.874Z,47.80
2018-11-04T22:57:05.141Z,46.77
2018-11-04T22:59:33.400Z,47.23
2018-11-04T23:02:01.625Z,47.53
2018-11-04T23:04:35.198Z,48.10
2018-11-04T23:07:03.381Z,46.17
2018-11-04T23:09:31.749Z,47.20
2018-11-04T23:11:59.951Z,46.60
2018-11-04T23:14:28.204Z,46.87
2018-11-04T23:16:56.374Z,46.47
2018-11-04T23:19:24.923Z,45.77
2018-11-04T23:21:53.313Z,45.37
2018-11-04T23:24:21.434Z,46.23
2018-11-04T23:26:49.592Z,45.50
2018-11-04T23:29:17.856Z,44.97
2018-11-04T23:31:46.348Z,46.93
2018-11-04T23:34:14.537Z,45.10
2018-11-04T23:36:42.706Z,45.87
2018-11-04T23:39:11.788Z,45.13
2018-11-04T23:41:40.441Z,44.93
2018-11-04T23:44:08.649Z,46.30
2018-11-04T23:46:36.937Z,44.33
2018-11-04T23:49:05.933Z,47.30
2018-11-04T23:51:34.106Z,44.37
2018-11-04T23:54:02.256Z,43.37
2018-11-04T23:56:30.439Z,45.20
2018-11-04T23:58:58.599Z,44.60
